Time;durP1;ratioP1;P1;durP2;ratioP2;P2;SDS_P1;SDS_P2;PMS_P1;PMS_P2;Temp;Humidity;BMP_temperature;BMP_pressure;BME280_temperature;BME280_humidity;BME280_pressure;Samples;Min_cycle;Max_cycle;Signal;HPM_P1;HPM_P2
2024/03/22 00:01:47;;;;;;;;;;;9.30;99.90;;;8.36;100.00;98492.84;4983177;28;1591;-70
2024/03/22 00:04:14;;;;;;;;;;;9.20;99.90;;;8.32;100.00;98491.19;4999061;28;1849;-70
2024/03/22 00:06:42;;;;;;;;;;;9.10;99.90;;;8.17;100.00;98482.00;4981237;28;1623;-70
2024/03/22 00:09:09;;;;;;;;;;;9.10;99.90;;;8.07;100.00;98480.44;4983275;28;1547;-69
2024/03/22 00:11:35;;;;;;;;;;;9.00;99.90;;;8.14;100.00;98486.38;4996827;28;2058;-69
2024/03/22 00:14:01;;;;;;;;;;;8.90;99.90;;;8.15;100.00;98486.34;4980876;28;1902;-70
2024/03/22 00:16:28;;;;;;;;;;;8.90;99.90;;;8.16;100.00;98489.78;4979242;28;1782;-70
2024/03/22 00:18:54;;;;;;;;;;;8.80;99.90;;;8.14;100.00;98491.53;4964107;28;1731;-70
2024/03/22 00:21:21;;;;;;;;;;;8.90;99.90;;;7.79;100.00;98489.59;4966212;28;1635;-70
2024/03/22 00:23:47;;;;;;;;;;;9.00;99.90;;;7.88;100.00;98481.69;4982873;28;1726;-70
2024/03/22 00:26:13;;;;;;;;;;;8.90;99.90;;;7.94;100.00;98487.59;4980303;28;3658;-70
2024/03/22 00:28:39;;;;;;;;;;;8.90;99.90;;;7.89;100.00;98496.28;4965954;28;2684;-70
2024/03/22 00:31:05;;;;;;;;;;;8.90;99.90;;;7.82;100.00;98495.53;4999877;28;1546;-70
2024/03/22 00:33:31;;;;;;;;;;;8.90;99.90;;;8.11;100.00;98486.44;4998048;28;1906;-70
2024/03/22 00:35:57;;;;;;;;;;;9.00;99.90;;;8.09;100.00;98483.88;4981092;28;1622;-69
2024/03/22 00:38:23;;;;;;;;;;;9.00;99.90;;;8.09;100.00;98486.44;4980377;28;2127;-69
2024/03/22 00:40:49;;;;;;;;;;;9.10;99.90;;;8.01;100.00;98484.91;4998180;28;1558;-69
2024/03/22 00:43:15;;;;;;;;;;;9.00;99.90;;;8.05;100.00;98481.38;4964982;28;1743;-69
2024/03/22 00:45:41;;;;;;;;;;;9.00;99.90;;;7.99;100.00;98477.16;4999817;28;2270;-69
2024/03/22 00:48:07;;;;;;;;;;;8.80;99.90;;;7.98;100.00;98472.88;4993791;28;1571;-70
2024/03/22 00:50:33;;;;;;;;;;;8.70;99.90;;;8.02;100.00;98471.94;4978838;28;1797;-69
2024/03/22 00:52:59;;;;;;;;;;;8.60;99.90;;;7.97;100.00;98471.16;4998425;28;1464;-70
2024/03/22 00:55:25;;;;;;;;;;;8.50;99.90;;;7.86;100.00;98471.34;4980001;28;1902;-70
2024/03/22 00:57:51;;;;;;;;;;;8.40;99.90;;;7.88;100.00;98464.44;4979754;28;1496;-69
2024/03/22 01:00:17;;;;;;;;;;;8.40;99.90;;;7.86;100.00;98471.34;4981145;28;1650;-70
2024/03/22 01:02:43;;;;;;;;;;;8.40;99.90;;;7.55;100.00;98468.44;4996340;28;1585;-69
2024/03/22 01:05:09;;;;;;;;;;;8.50;99.90;;;7.67;100.00;98475.16;4997846;28;3195;-70
2024/03/22 01:07:36;;;;;;;;;;;8.40;99.90;;;7.64;100.00;98468.28;4980358;28;1800;-70
2024/03/22 01:10:05;;;;;;;;;;;8.40;99.90;;;7.70;100.00;98467.34;4982340;28;1619;-69
2024/03/22 01:12:31;;;;;;;;;;;8.50;99.90;;;7.61;100.00;98467.47;4980701;28;1582;-69
2024/03/22 01:14:57;;;;;;;;;;;8.40;99.90;;;7.53;100.00;98471.03;4995341;28;1922;-70
2024/03/22 01:17:22;;;;;;;;;;;8.50;99.90;;;7.50;100.00;98470.22;4981108;28;2045;-69
2024/03/22 01:19:48;;;;;;;;;;;8.50;99.90;;;7.67;100.00;98477.72;4994483;28;1480;-69
2024/03/22 01:22:14;;;;;;;;;;;8.60;99.90;;;7.74;100.00;98479.31;4978760;28;1610;-69
2024/03/22 01:24:40;;;;;;;;;;;8.70;99.90;;;7.54;100.00;98471.91;4966553;28;1858;-69
2024/03/22 01:27:06;;;;;;;;;;;8.80;99.90;;;7.60;100.00;98469.22;4975798;28;1369;-70
2024/03/22 01:29:32;;;;;;;;;;;8.80;99.90;;;7.81;100.00;98470.59;4975762;28;1636;-70
2024/03/22 01:31:58;;;;;;;;;;;8.80;99.90;;;7.88;100.00;98461.84;4978170;28;2071;-69
2024/03/22 01:34:24;;;;;;;;;;;8.80;99.90;;;7.90;100.00;98465.25;4976726;28;1902;-69
2024/03/22 01:36:51;;;;;;;;;;;8.70;99.90;;;7.82;100.00;98448.16;4985109;28;1614;-69
2024/03/22 01:39:20;;;;;;;;;;;8.60;99.90;;;7.69;100.00;98455.31;4981320;28;1838;-69
2024/03/22 01:41:50;;;;;;;;;;;8.50;99.90;;;7.69;100.00;98450.13;4980711;28;1607;-70
2024/03/22 01:44:17;;;;;;;;;;;8.50;99.90;;;7.79;100.00;98451.66;4980519;28;1407;-69
2024/03/22 01:46:44;;;;;;;;;;;8.50;99.90;;;7.86;100.00;98448.09;4977845;28;3083;-69
2024/03/22 01:49:14;;;;;;;;;;;8.50;99.90;;;7.80;100.00;98444.75;4962964;28;1575;-69
2024/03/22 01:51:40;;;;;;;;;;;8.40;99.90;;;7.66;100.00;98445.88;4980824;28;1590;-69
2024/03/22 01:54:08;;;;;;;;;;;8.40;99.90;;;7.73;100.00;98444.00;4977389;28;1997;-70
2024/03/22 01:56:37;;;;;;;;;;;8.30;99.90;;;7.76;100.00;98454.31;4995939;28;1564;-69
2024/03/22 01:59:04;;;;;;;;;;;8.30;99.90;;;7.56;100.00;98454.63;4976425;28;1858;-69
2024/03/22 02:01:30;;;;;;;;;;;8.30;99.90;;;7.74;100.00;98456.06;4993306;28;1731;-69
2024/03/22 02:03:55;;;;;;;;;;;8.40;99.90;;;7.71;100.00;98456.97;4977422;28;1632;-69
2024/03/22 02:06:22;;;;;;;;;;;8.40;99.90;;;7.89;100.00;98455.81;5000512;28;1712;-70
2024/03/22 02:08:47;;;;;;;;;;;8.50;99.90;;;7.93;100.00;98454.00;4984751;28;1637;-69
2024/03/22 02:11:13;;;;;;;;;;;8.70;99.90;;;8.00;100.00;98457.34;5001495;28;1396;-69
2024/03/22 02:13:40;;;;;;;;;;;8.80;99.90;;;7.99;100.00;98445.31;4998908;28;2052;-70
2024/03/22 02:16:06;;;;;;;;;;;8.80;99.90;;;7.93;100.00;98451.41;4965431;28;1877;-69
2024/03/22 02:18:32;;;;;;;;;;;8.90;99.90;;;8.04;100.00;98441.75;4997333;28;1712;-69
2024/03/22 02:20:57;;;;;;;;;;;8.90;99.90;;;8.03;100.00;98442.63;4987204;28;1714;-70
2024/03/22 02:23:42;;;;;;;;;;;8.90;99.90;;;7.92;100.00;98439.38;4966884;28;1441;-69
2024/03/22 02:26:08;;;;;;;;;;;9.00;99.90;;;7.83;100.00;98424.91;4996132;28;1622;-69
2024/03/22 02:28:35;;;;;;;;;;;8.90;99.90;;;7.83;100.00;98426.63;4996501;28;3355;-70
2024/03/22 02:31:02;;;;;;;;;;;8.70;99.90;;;7.83;100.00;98430.06;4982171;28;1453;-70
2024/03/22 02:33:28;;;;;;;;;;;8.60;99.90;;;7.66;100.00;98425.19;4994674;28;1744;-69
2024/03/22 02:35:54;;;;;;;;;;;8.60;99.90;;;7.52;100.00;98422.81;4956989;28;1915;-69
2024/03/22 02:38:20;;;;;;;;;;;8.60;99.90;;;7.68;100.00;98422.56;4999181;28;2577;-69
2024/03/22 02:40:47;;;;;;;;;;;8.40;99.90;;;7.68;100.00;98423.41;4980622;28;1545;-70
2024/03/22 02:43:13;;;;;;;;;;;8.40;99.90;;;7.69;100.00;98422.56;4980208;28;1567;-70
2024/03/22 02:45:39;;;;;;;;;;;8.30;99.90;;;7.42;100.00;98418.72;4969401;28;2332;-69
2024/03/22 02:48:06;;;;;;;;;;;8.30;99.90;;;7.31;100.00;98418.88;4966883;28;2331;-70
2024/03/22 02:50:36;;;;;;;;;;;8.30;99.90;;;7.18;100.00;98416.50;4978004;28;1657;-70
2024/03/22 02:53:03;;;;;;;;;;;8.30;99.90;;;7.24;100.00;98416.41;4981721;28;1579;-70
2024/03/22 02:55:29;;;;;;;;;;;8.20;99.90;;;7.17;100.00;98423.41;4977175;28;1998;-69
2024/03/22 02:57:58;;;;;;;;;;;8.20;99.90;;;7.07;100.00;98419.25;4999530;28;1606;-69
2024/03/22 03:00:24;;;;;;;;;;;8.20;99.90;;;7.28;100.00;98425.81;4974239;28;2072;-69
2024/03/22 03:02:50;;;;;;;;;;;8.30;99.90;;;7.35;100.00;98422.28;4975176;28;1616;-69
2024/03/22 03:05:16;;;;;;;;;;;8.30;99.90;;;7.40;100.00;98420.47;4992553;28;1519;-69
2024/03/22 03:07:42;;;;;;;;;;;8.40;99.90;;;7.52;100.00;98412.50;4973479;28;1557;-69
2024/03/22 03:10:08;;;;;;;;;;;8.40;99.90;;;7.59;100.00;98408.06;4975872;28;1654;-69
2024/03/22 03:12:33;;;;;;;;;;;8.50;99.90;;;7.64;100.00;98411.44;4993800;28;1657;-69
2024/03/22 03:14:59;;;;;;;;;;;8.50;99.90;;;7.68;100.00;98407.06;4984535;28;3053;-69
2024/03/22 03:17:25;;;;;;;;;;;8.60;99.90;;;7.75;100.00;98404.38;5000196;28;1617;-69
2024/03/22 03:19:51;;;;;;;;;;;8.70;99.90;;;7.69;100.00;98399.28;4996179;28;1691;-70
2024/03/22 03:22:17;;;;;;;;;;;8.70;99.90;;;7.77;100.00;98403.47;4980442;28;1831;-69
2024/03/22 03:24:43;;;;;;;;;;;8.80;99.90;;;7.79;100.00;98405.16;5001090;28;1753;-69
2024/03/22 03:27:09;;;;;;;;;;;8.80;99.90;;;7.80;100.00;98400.81;4964101;28;1844;-69
2024/03/22 03:29:36;;;;;;;;;;;8.80;99.90;;;7.82;100.00;98399.06;4996621;28;2038;-70
2024/03/22 03:32:02;;;;;;;;;;;8.80;99.90;;;7.86;100.00;98390.38;4963852;28;1690;-69
2024/03/22 03:34:27;;;;;;;;;;;8.90;99.90;;;7.84;100.00;98395.56;4989971;28;1966;-69
2024/03/22 03:36:53;;;;;;;;;;;8.90;99.90;;;7.87;100.00;98397.28;4997277;28;1685;-69
2024/03/22 03:39:19;;;;;;;;;;;8.90;99.90;;;7.75;100.00;98390.56;4979765;28;1710;-70
2024/03/22 03:41:45;;;;;;;;;;;8.80;99.90;;;7.75;100.00;98391.44;4981944;28;1530;-69
2024/03/22 03:44:11;;;;;;;;;;;8.70;99.90;;;7.73;100.00;98388.03;4980353;28;2063;-69
2024/03/22 03:46:36;;;;;;;;;;;8.50;99.90;;;7.58;100.00;98392.63;4966429;28;1570;-70
2024/03/22 03:49:02;;;;;;;;;;;8.40;99.90;;;7.47;100.00;98382.47;4995917;28;1614;-70
2024/03/22 03:51:28;;;;;;;;;;;8.30;99.90;;;7.37;100.00;98391.22;4979573;28;1288;-70
2024/03/22 03:53:54;;;;;;;;;;;8.30;99.90;;;7.44;100.00;98383.38;4997452;28;1911;-69
2024/03/22 03:56:20;;;;;;;;;;;8.40;99.90;;;7.19;100.00;98382.09;4998231;28;1576;-69
2024/03/22 03:58:46;;;;;;;;;;;8.40;99.90;;;7.20;100.00;98381.19;4964863;28;3273;-70
2024/03/22 04:01:12;;;;;;;;;;;8.30;99.90;;;7.02;100.00;98375.44;4980965;28;1630;-69
2024/03/22 04:03:38;;;;;;;;;;;8.20;99.90;;;7.13;100.00;98373.53;4983526;28;1455;-69
2024/03/22 04:06:04;;;;;;;;;;;8.20;99.90;;;7.06;100.00;98376.25;4999491;28;1491;-70
2024/03/22 04:08:31;;;;;;;;;;;8.10;99.90;;;7.11;100.00;98384.75;4998413;28;2174;-69
2024/03/22 04:10:57;;;;;;;;;;;8.10;99.90;;;7.27;100.00;98386.22;4985402;28;1621;-69
2024/03/22 04:13:24;;;;;;;;;;;8.20;99.90;;;7.19;100.00;98382.09;4997753;28;1660;-69
2024/03/22 04:15:50;;;;;;;;;;;8.10;99.90;;;7.13;100.00;98381.28;4995711;28;1977;-69
2024/03/22 04:18:16;;;;;;;;;;;8.10;99.90;;;7.28;100.00;98384.50;4979098;28;1522;-70
2024/03/22 04:20:43;;;;;;;;;;;8.20;99.90;;;7.12;100.00;98381.31;4984146;28;1720;-70
2024/03/22 04:23:09;;;;;;;;;;;8.10;99.90;;;7.15;100.00;98380.41;5000340;28;1568;-69
2024/03/22 04:25:35;;;;;;;;;;;8.10;99.90;;;7.25;100.00;98374.22;4998383;28;2190;-69
2024/03/22 04:28:01;;;;;;;;;;;8.10;99.90;;;7.30;100.00;98375.84;4996042;28;1365;-70
2024/03/22 04:30:27;;;;;;;;;;;8.10;99.90;;;7.23;100.00;98371.69;4995681;28;1423;-69
2024/03/22 04:32:53;;;;;;;;;;;8.10;99.90;;;7.40;100.00;98366.22;4994775;28;1607;-70
2024/03/22 04:35:19;;;;;;;;;;;8.20;99.90;;;7.50;100.00;98375.53;4980574;28;1902;-69
2024/03/22 04:37:45;;;;;;;;;;;8.30;99.90;;;7.38;100.00;98372.28;4980914;28;3394;-70
2024/03/22 04:40:11;;;;;;;;;;;8.20;99.90;;;7.30;100.00;98373.28;4997065;28;1709;-69
2024/03/22 04:42:37;;;;;;;;;;;8.00;99.90;;;7.27;100.00;98369.88;4980788;28;1874;-70
2024/03/22 04:45:03;;;;;;;;;;;8.10;99.90;;;7.29;100.00;98379.31;4980767;28;2342;-69
2024/03/22 04:47:29;;;;;;;;;;;8.10;99.90;;;7.28;100.00;98374.19;4994764;28;1732;-69
2024/03/22 04:49:55;;;;;;;;;;;8.10;99.90;;;7.44;100.00;98374.78;4984607;28;1644;-70
2024/03/22 04:52:20;;;;;;;;;;;8.20;99.90;;;7.34;100.00;98379.22;4997250;28;1602;-69
2024/03/22 04:54:47;;;;;;;;;;;8.30;99.90;;;7.53;100.00;98375.47;4995358;28;1989;-69
2024/03/22 04:57:13;;;;;;;;;;;8.40;99.90;;;7.58;100.00;98364.19;4980801;28;1764;-70
2024/03/22 04:59:39;;;;;;;;;;;8.40;99.90;;;7.60;100.00;98376.22;4994921;28;1416;-70
2024/03/22 05:02:06;;;;;;;;;;;8.50;99.90;;;7.59;100.00;98369.31;4966561;28;2078;-69
2024/03/22 05:04:32;;;;;;;;;;;8.60;99.90;;;7.56;100.00;98371.97;4998439;28;1613;-69
2024/03/22 05:06:57;;;;;;;;;;;8.50;99.90;;;7.56;100.00;98365.97;4997980;28;1888;-69
2024/03/22 05:09:23;;;;;;;;;;;8.60;99.90;;;7.59;100.00;98368.47;4980629;28;1639;-69
2024/03/22 05:11:50;;;;;;;;;;;8.60;99.90;;;7.50;100.00;98365.19;4995937;28;1582;-69
2024/03/22 05:14:19;;;;;;;;;;;8.50;99.90;;;7.53;100.00;98365.13;4981461;28;1911;-69
2024/03/22 05:16:44;;;;;;;;;;;8.50;99.90;;;7.49;100.00;98371.22;4980040;28;3069;-69
2024/03/22 05:19:10;;;;;;;;;;;8.50;99.90;;;7.47;100.00;98372.13;4995211;28;1606;-69
2024/03/22 05:21:36;;;;;;;;;;;8.50;99.90;;;7.41;100.00;98372.22;4995059;28;1591;-69
2024/03/22 05:24:02;;;;;;;;;;;8.40;99.90;;;7.48;100.00;98382.44;4997274;28;1849;-68
2024/03/22 05:26:32;;;;;;;;;;;8.40;99.90;;;7.48;100.00;98381.56;4995046;28;1854;-69
2024/03/22 05:28:57;;;;;;;;;;;8.40;99.90;;;7.38;100.00;98385.19;4980538;28;1835;-70
2024/03/22 05:31:23;;;;;;;;;;;8.30;99.90;;;7.31;100.00;98384.44;4983130;28;1964;-69
2024/03/22 05:33:49;;;;;;;;;;;8.40;99.90;;;7.39;100.00;98384.31;4993566;28;1910;-69
2024/03/22 05:36:15;;;;;;;;;;;8.40;99.90;;;7.41;100.00;98388.59;5000321;28;1733;-69
2024/03/22 05:38:41;;;;;;;;;;;8.40;99.90;;;7.14;100.00;98377.00;4967286;28;1630;-69
2024/03/22 05:41:07;;;;;;;;;;;8.30;99.90;;;7.31;100.00;98371.53;4997278;28;1711;-69
2024/03/22 05:43:32;;;;;;;;;;;8.30;99.90;;;7.46;100.00;98370.44;4978230;28;1597;-70
2024/03/22 05:45:58;;;;;;;;;;;8.30;99.90;;;7.30;100.00;98356.94;4996153;28;2086;-70
2024/03/22 05:48:24;;;;;;;;;;;8.30;99.90;;;7.09;100.00;98356.41;4980281;28;1555;-69
2024/03/22 05:50:50;;;;;;;;;;;8.20;99.90;;;7.13;100.00;98357.19;4993626;28;1621;-70
2024/03/22 05:53:16;;;;;;;;;;;8.00;99.90;;;6.84;100.00;98348.19;4963916;28;1419;-70
2024/03/22 05:55:42;;;;;;;;;;;7.90;99.90;;;7.15;100.00;98354.59;4964171;28;1902;-70
2024/03/22 05:58:09;;;;;;;;;;;8.10;99.90;;;7.24;100.00;98354.44;4980882;28;1609;-69
2024/03/22 06:00:34;;;;;;;;;;;8.20;99.90;;;7.40;100.00;98355.03;4978669;28;1460;-69
2024/03/22 06:03:00;;;;;;;;;;;8.20;99.90;;;7.41;100.00;98361.91;4979593;28;1356;-69
2024/03/22 06:05:26;;;;;;;;;;;8.20;99.90;;;7.39;100.00;98351.63;4979837;28;1471;-69
2024/03/22 06:07:52;;;;;;;;;;;8.30;99.90;;;7.61;100.00;98356.38;4977613;28;1586;-69
2024/03/22 06:10:19;;;;;;;;;;;8.40;99.90;;;7.79;100.00;98350.88;4960538;28;1462;-70
2024/03/22 06:12:47;;;;;;;;;;;8.50;99.90;;;7.93;100.00;98348.88;4965632;28;3204;-69
2024/03/22 06:15:12;;;;;;;;;;;8.60;99.90;;;8.05;100.00;98350.38;4979115;28;1989;-69
2024/03/22 06:17:38;;;;;;;;;;;8.60;99.90;;;7.97;100.00;98347.09;4992086;28;1663;-69
2024/03/22 06:20:05;;;;;;;;;;;8.70;99.90;;;7.99;100.00;98344.47;4982109;28;1659;-70
2024/03/22 06:22:31;;;;;;;;;;;8.80;99.90;;;7.99;100.00;98341.88;4968897;28;1697;-69
2024/03/22 06:24:57;;;;;;;;;;;8.90;99.90;;;8.09;100.00;98335.63;4979371;28;1795;-69
2024/03/22 06:27:23;;;;;;;;;;;8.90;99.90;;;8.26;100.00;98333.56;4980395;28;2199;-70
2024/03/22 06:29:49;;;;;;;;;;;9.00;99.90;;;8.42;100.00;98328.94;4996863;28;1806;-69
2024/03/22 06:32:14;;;;;;;;;;;8.90;99.90;;;8.47;100.00;98324.50;4980293;28;1791;-70
2024/03/22 06:34:40;;;;;;;;;;;9.00;99.90;;;8.45;100.00;98320.25;4961763;28;1923;-70
2024/03/22 06:37:06;;;;;;;;;;;9.10;99.90;;;8.61;100.00;98325.94;4993782;28;2359;-69
2024/03/22 06:39:32;;;;;;;;;;;9.10;99.90;;;8.69;100.00;98313.66;4978843;28;1638;-69
2024/03/22 06:41:58;;;;;;;;;;;9.20;99.90;;;8.82;100.00;98311.66;4995747;28;1470;-69
2024/03/22 06:44:24;;;;;;;;;;;9.30;99.90;;;8.89;100.00;98306.28;4983328;28;2358;-70
2024/03/22 06:46:50;;;;;;;;;;;9.30;99.90;;;8.89;100.00;98303.69;4996250;28;2270;-69
2024/03/22 06:49:16;;;;;;;;;;;9.40;99.90;;;8.95;100.00;98298.38;4962815;28;1620;-70
2024/03/22 06:51:41;;;;;;;;;;;9.50;99.90;;;8.98;100.00;98287.94;4977148;28;1594;-70
2024/03/22 06:54:07;;;;;;;;;;;9.60;99.90;;;9.20;100.00;98284.81;4996749;28;1971;-70
2024/03/22 06:56:33;;;;;;;;;;;9.60;99.90;;;9.10;100.00;98279.03;4983742;28;1529;-70
2024/03/22 06:58:59;;;;;;;;;;;9.60;99.90;;;9.24;100.00;98278.66;5000253;28;1400;-70
2024/03/22 07:01:25;;;;;;;;;;;9.70;99.90;;;9.41;100.00;98276.47;4982832;28;3233;-70
2024/03/22 07:03:52;;;;;;;;;;;9.80;99.90;;;9.39;100.00;98275.66;4994869;28;1777;-70
2024/03/22 07:06:18;;;;;;;;;;;9.80;99.90;;;9.47;100.00;98259.06;4995697;28;1894;-70
2024/03/22 07:08:44;;;;;;;;;;;9.90;99.90;;;9.48;100.00;98251.25;4966516;28;1568;-70
2024/03/22 07:11:10;;;;;;;;;;;9.90;99.90;;;9.38;100.00;98253.25;4999800;28;1691;-70
2024/03/22 07:13:36;;;;;;;;;;;9.90;99.90;;;9.64;100.00;98251.66;4998380;28;1499;-69
2024/03/22 07:16:03;;;;;;;;;;;9.90;99.90;;;9.70;100.00;98248.06;4983693;28;1983;-70
2024/03/22 07:18:29;;;;;;;;;;;10.00;99.90;;;9.74;100.00;98237.56;4995283;28;1570;-70
2024/03/22 07:20:57;;;;;;;;;;;9.90;99.90;;;9.80;100.00;98234.78;4998579;28;1594;-70
2024/03/22 07:23:23;;;;;;;;;;;10.00;99.90;;;9.83;100.00;98224.34;5000244;28;1741;-70
2024/03/22 07:25:49;;;;;;;;;;;9.90;99.90;;;9.75;100.00;98222.84;4983821;28;1709;-70
2024/03/22 07:28:15;;;;;;;;;;;9.90;99.90;;;9.78;100.00;98222.75;4995659;28;2066;-69
2024/03/22 07:30:42;;;;;;;;;;;10.00;99.90;;;9.74;100.00;98221.13;4996920;28;1610;-70
2024/03/22 07:33:07;;;;;;;;;;;10.00;99.90;;;9.80;100.00;98221.81;4982968;28;1404;-70
2024/03/22 07:35:36;;;;;;;;;;;10.00;99.90;;;9.88;100.00;98216.41;4980643;28;1914;-70
2024/03/22 07:38:02;;;;;;;;;;;10.10;99.90;;;9.76;100.00;98215.03;5000202;28;1754;-69
2024/03/22 07:40:30;;;;;;;;;;;10.00;99.90;;;9.75;100.00;98221.09;4997144;28;1747;-70
2024/03/22 07:42:55;;;;;;;;;;;10.10;99.90;;;9.73;100.00;98219.44;4995622;28;3276;-70
2024/03/22 07:45:21;;;;;;;;;;;10.20;99.90;;;9.89;100.00;98222.44;4982085;28;1626;-70
2024/03/22 07:47:48;;;;;;;;;;;10.10;99.90;;;9.86;100.00;98217.38;4980895;28;1821;-70
2024/03/22 07:50:14;;;;;;;;;;;10.10;99.90;;;10.00;100.00;98221.22;4988307;28;1517;-69
2024/03/22 07:52:40;;;;;;;;;;;10.20;99.90;;;9.93;100.00;98211.09;4996518;28;1694;-70
2024/03/22 07:55:06;;;;;;;;;;;10.30;99.90;;;9.92;100.00;98211.97;4978181;28;1903;-70
2024/03/22 07:57:32;;;;;;;;;;;10.40;99.90;;;9.86;100.00;98217.38;4977161;28;2004;-70
2024/03/22 07:59:58;;;;;;;;;;;10.40;99.90;;;10.01;100.00;98209.97;4997427;28;1725;-69
2024/03/22 08:02:24;;;;;;;;;;;10.50;99.90;;;10.14;100.00;98207.00;4963702;28;1617;-69
2024/03/22 08:04:50;;;;;;;;;;;10.60;99.90;;;10.32;100.00;98206.47;4978526;28;1578;-69
2024/03/22 08:07:16;;;;;;;;;;;10.60;99.90;;;10.02;100.00;98201.28;4979326;28;1646;-69
2024/03/22 08:09:41;;;;;;;;;;;10.60;99.90;;;10.11;100.00;98194.13;4980282;28;1583;-70
2024/03/22 08:12:07;;;;;;;;;;;10.50;99.90;;;10.15;100.00;98201.78;4979566;28;2233;-70
2024/03/22 08:14:33;;;;;;;;;;;10.50;99.90;;;9.91;100.00;98200.75;4978992;28;1902;-70
2024/03/22 08:16:59;;;;;;;;;;;10.60;99.90;;;10.08;100.00;98202.00;4980138;28;1587;-70
2024/03/22 08:19:25;;;;;;;;;;;10.50;99.90;;;10.06;100.00;98196.88;4961701;28;1589;-70
2024/03/22 08:21:51;;;;;;;;;;;10.50;99.90;;;10.13;100.00;98190.59;4994825;28;1713;-70
2024/03/22 08:24:18;;;;;;;;;;;10.50;99.90;;;10.23;100.00;98185.97;4964273;28;3197;-70
2024/03/22 08:26:46;;;;;;;;;;;10.50;99.90;;;10.19;100.00;98180.00;4980724;28;1626;-70
2024/03/22 08:29:15;;;;;;;;;;;10.60;99.90;;;10.35;100.00;98189.94;4992030;28;2198;-70
2024/03/22 08:31:41;;;;;;;;;;;10.70;99.90;;;10.48;100.00;98177.44;4976358;28;1657;-70
2024/03/22 08:34:08;;;;;;;;;;;10.80;99.90;;;10.44;100.00;98174.91;4994980;28;1981;-69
2024/03/22 08:36:34;;;;;;;;;;;10.90;99.90;;;10.43;100.00;98168.03;4962258;28;2179;-70
2024/03/22 08:39:00;;;;;;;;;;;11.00;99.90;;;10.42;100.00;98168.94;4977638;28;2512;-70
2024/03/22 08:41:26;;;;;;;;;;;11.00;99.90;;;10.44;100.00;98169.72;4980748;28;1730;-69
2024/03/22 08:43:51;;;;;;;;;;;11.00;99.90;;;10.67;100.00;98166.38;4976147;28;2278;-70
2024/03/22 08:46:17;;;;;;;;;;;11.00;99.90;;;10.73;100.00;98167.91;4994639;28;1640;-70
2024/03/22 08:48:43;;;;;;;;;;;11.10;99.90;;;10.73;100.00;98162.72;4996843;28;2472;-70
2024/03/22 08:51:09;;;;;;;;;;;11.10;99.90;;;10.82;100.00;98159.81;4992165;28;1509;-70
2024/03/22 08:53:35;;;;;;;;;;;11.30;99.90;;;10.72;100.00;98157.56;4978943;28;1886;-70
2024/03/22 08:56:00;;;;;;;;;;;11.20;99.90;;;10.74;100.00;98150.59;4978157;28;1902;-70
2024/03/22 08:58:27;;;;;;;;;;;11.30;99.90;;;10.58;100.00;98152.84;4994823;28;1365;-70
2024/03/22 09:00:53;;;;;;;;;;;11.30;99.90;;;10.72;100.00;98144.59;4993805;28;1621;-70
2024/03/22 09:03:21;;;;;;;;;;;11.30;99.90;;;10.74;100.00;98141.06;4973738;28;3066;-70
2024/03/22 09:05:47;;;;;;;;;;;11.30;99.90;;;10.97;100.00;98142.88;4992791;28;1304;-70
2024/03/22 09:08:13;;;;;;;;;;;11.20;99.90;;;10.94;100.00;98136.91;4961684;28;1589;-69
2024/03/22 09:10:38;;;;;;;;;;;11.30;99.90;;;11.12;100.00;98136.25;4974048;28;1914;-70
2024/03/22 09:13:04;;;;;;;;;;;11.50;99.90;;;11.14;100.00;98137.06;4995309;28;1438;-70
2024/03/22 09:15:31;;;;;;;;;;;11.60;99.90;;;11.14;100.00;98126.66;4994645;28;1959;-70
2024/03/22 09:17:56;;;;;;;;;;;11.70;99.90;;;11.38;100.00;98131.88;4992638;28;1456;-70
2024/03/22 09:20:23;;;;;;;;;;;11.90;99.90;;;11.29;100.00;98130.47;4995593;28;1589;-69
2024/03/22 09:22:49;;;;;;;;;;;11.90;99.90;;;11.50;100.00;98134.03;4992549;28;1475;-70
2024/03/22 09:25:14;;;;;;;;;;;11.90;99.90;;;11.48;100.00;98128.88;4976903;28;1779;-69
2024/03/22 09:27:40;;;;;;;;;;;12.00;99.90;;;11.48;100.00;98126.28;4974763;28;1600;-69
2024/03/22 09:30:07;;;;;;;;;;;12.00;99.90;;;11.58;100.00;98118.97;4968187;28;1903;-70
2024/03/22 09:32:32;;;;;;;;;;;12.10;99.90;;;11.68;100.00;98111.69;4997328;28;1819;-69
2024/03/22 09:34:58;;;;;;;;;;;12.10;99.90;;;11.83;100.00;98111.06;4992506;28;1988;-70
2024/03/22 09:37:24;;;;;;;;;;;12.00;99.90;;;11.69;100.00;98113.38;4994970;28;1914;-70
2024/03/22 09:39:50;;;;;;;;;;;12.10;99.90;;;11.82;100.00;98104.19;4997898;28;1610;-69
2024/03/22 09:42:19;;;;;;;;;;;12.10;99.90;;;12.13;100.00;98085.63;4983140;28;1743;-70
2024/03/22 09:44:50;;;;;;;;;;;12.10;99.90;;;12.05;100.00;98085.09;4961777;28;3129;-70
2024/03/22 09:47:17;;;;;;;;;;;12.20;99.90;;;12.18;100.00;98088.06;4980219;28;1701;-70
2024/03/22 09:49:48;;;;;;;;;;;12.40;99.90;;;11.94;100.00;98082.06;4994373;28;1376;-70
2024/03/22 09:52:15;;;;;;;;;;;12.50;99.90;;;12.16;100.00;98081.19;4961753;28;1602;-70
2024/03/22 09:54:44;;;;;;;;;;;12.60;99.90;;;12.43;100.00;98084.41;4995265;28;1898;-70
2024/03/22 09:57:15;;;;;;;;;;;12.60;99.90;;;12.51;100.00;98074.53;4975945;28;1516;-70
2024/03/22 09:59:47;;;;;;;;;;;12.60;99.90;;;12.31;100.00;98072.75;4992022;28;2027;-70
2024/03/22 10:02:13;;;;;;;;;;;12.70;99.90;;;12.22;100.00;98075.75;4973048;28;2416;-69
2024/03/22 10:04:40;;;;;;;;;;;12.60;99.90;;;12.47;100.00;98065.16;4990507;28;1422;-70
2024/03/22 10:07:08;;;;;;;;;;;12.60;99.90;;;12.53;100.00;98063.13;4979629;28;1842;-70
2024/03/22 10:09:34;;;;;;;;;;;12.70;99.90;;;12.53;100.00;98067.50;4993622;28;2205;-70
2024/03/22 10:11:59;;;;;;;;;;;12.70;99.90;;;12.52;100.00;98058.84;4979874;28;2036;-70
2024/03/22 10:14:26;;;;;;;;;;;13.00;99.90;;;12.85;100.00;98067.88;4996999;28;1927;-70
2024/03/22 10:16:53;;;;;;;;;;;13.10;99.90;;;12.81;100.00;98059.34;4979101;28;1833;-70
2024/03/22 10:19:20;;;;;;;;;;;13.20;99.90;;;13.08;100.00;98046.00;4993733;28;1552;-70
2024/03/22 10:21:48;;;;;;;;;;;13.50;99.90;;;13.35;100.00;98036.94;4980152;28;1601;-70
2024/03/22 10:24:14;;;;;;;;;;;13.70;99.90;;;13.47;100.00;98027.69;4963072;28;1696;-70
2024/03/22 10:26:40;;;;;;;;;;;14.00;99.90;;;14.05;100.00;98013.63;4980625;28;3358;-70
2024/03/22 10:29:06;;;;;;;;;;;14.30;99.90;;;13.82;100.00;97999.06;4982096;28;1630;-70
2024/03/22 10:31:34;;;;;;;;;;;14.50;99.90;;;13.64;100.00;98000.81;4983399;28;1608;-70
2024/03/22 10:34:03;;;;;;;;;;;14.30;99.90;;;13.83;100.00;97987.72;4993789;28;1627;-70
2024/03/22 10:36:31;;;;;;;;;;;14.50;99.90;;;13.85;100.00;97996.31;4995058;28;1906;-70
2024/03/22 10:38:58;;;;;;;;;;;14.50;99.90;;;14.30;100.00;97975.81;4999709;28;1633;-70
2024/03/22 10:41:26;;;;;;;;;;;14.40;99.90;;;14.17;100.00;97965.16;4966886;28;1578;-70
2024/03/22 10:43:52;;;;;;;;;;;14.40;99.90;;;13.79;100.00;97965.31;4984749;28;2295;-70
2024/03/22 10:46:20;;;;;;;;;;;14.50;99.90;;;14.14;100.00;97967.91;4963921;28;2200;-70
2024/03/22 10:48:46;;;;;;;;;;;14.40;99.90;;;14.14;100.00;97965.28;4996037;28;1806;-70
2024/03/22 10:51:13;;;;;;;;;;;14.50;99.90;;;14.22;100.00;97945.72;4980215;28;1725;-70
2024/03/22 10:53:39;;;;;;;;;;;14.60;99.90;;;14.21;100.00;97946.66;4963116;28;1614;-70
2024/03/22 10:56:06;;;;;;;;;;;14.70;99.90;;;14.34;100.00;97925.13;4950501;28;1907;-70
2024/03/22 10:58:32;;;;;;;;;;;14.80;99.90;;;14.31;100.00;97939.19;4978321;28;2107;-70
2024/03/22 11:00:58;;;;;;;;;;;14.80;99.90;;;14.23;100.00;97934.38;4981143;28;2493;-70
2024/03/22 11:03:24;;;;;;;;;;;14.80;99.90;;;14.63;100.00;97931.44;4977813;28;1619;-70
2024/03/22 11:05:54;;;;;;;;;;;14.80;99.90;;;15.13;100.00;97916.56;4996268;28;1582;-70
2024/03/22 11:08:27;;;;;;;;;;;14.80;99.90;;;14.80;100.00;97904.41;4966084;28;1603;-70
2024/03/22 11:10:54;;;;;;;;;;;14.90;99.90;;;15.00;100.00;97911.16;4996551;28;1607;-70
2024/03/22 11:13:20;;;;;;;;;;;15.20;99.90;;;15.45;100.00;97894.66;5000088;28;3092;-70
2024/03/22 11:15:49;;;;;;;;;;;15.40;99.90;;;15.59;100.00;97895.63;4983426;28;1908;-71
2024/03/22 11:18:16;;;;;;;;;;;15.50;99.90;;;15.14;100.00;97890.31;4992875;28;1650;-70
2024/03/22 11:20:44;;;;;;;;;;;15.50;99.90;;;15.37;100.00;97878.56;4981294;28;1559;-70
2024/03/22 11:23:10;;;;;;;;;;;15.70;99.90;;;15.45;100.00;97876.34;4964164;28;1662;-70
2024/03/22 11:25:36;;;;;;;;;;;15.80;99.90;;;15.73;100.00;97866.91;4962374;28;1456;-70